Time;durP1;ratioP1;P1;durP2;ratioP2;P2;SDS_P1;SDS_P2;PMS_P1;PMS_P2;Temp;Humidity;BMP_temperature;BMP_pressure;BME280_temperature;BME280_humidity;BME280_pressure;Samples;Min_cycle;Max_cycle;Signal;HPM_P1;HPM_P2
2024/01/21 00:00:57;;;;;;;;;;;;;;;-144.99;100.00;67352.69;5014987;28;19913;-81
2024/01/21 00:03:22;;;;;;;;;;;;;;;-144.99;100.00;67352.69;4996727;28;19981;-83
2024/01/21 00:05:47;;;;;;;;;;;;;;;-144.99;100.00;67352.69;5015065;28;19917;-84
2024/01/21 00:08:12;;;;;;;;;;;;;;;-144.99;100.00;67352.69;4997064;28;19914;-83
2024/01/21 00:10:37;;;;;;;;;;;;;;;-144.99;100.00;67352.69;4996877;28;19913;-83
2024/01/21 00:13:03;;;;;;;;;;;;;;;-144.99;100.00;67352.69;4996058;28;20402;-84
2024/01/21 00:15:28;;;;;;;;;;;;;;;-144.99;100.00;67352.69;5018528;28;19936;-84
2024/01/21 00:17:53;;;;;;;;;;;;;;;-144.99;100.00;67352.69;5007551;28;19921;-83
2024/01/21 00:20:18;;;;;;;;;;;;;;;-144.99;100.00;67352.69;5028777;28;19929;-83
2024/01/21 00:22:44;;;;;;;;;;;;;;;-144.99;100.00;67352.69;5012893;28;20392;-82
2024/01/21 00:25:09;;;;;;;;;;;;;;;-144.99;100.00;67352.69;5026710;28;19913;-82
2024/01/21 00:27:35;;;;;;;;;;;;;;;-144.99;100.00;67352.69;5006708;28;19960;-82
2024/01/21 00:30:00;;;;;;;;;;;;;;;-144.99;100.00;67352.69;5014347;28;19913;-83
2024/01/21 00:32:26;;;;;;;;;;;;;;;-144.99;100.00;67352.69;5011130;28;20268;-82
2024/01/21 00:34:51;;;;;;;;;;;;;;;-144.99;100.00;67352.69;5003646;28;19956;-82
2024/01/21 00:37:16;;;;;;;;;;;;;;;-144.99;100.00;67352.69;4996967;28;20550;-82
2024/01/21 00:39:41;;;;;;;;;;;;;;;-144.99;100.00;67352.69;5014135;28;19933;-84
2024/01/21 00:42:06;;;;;;;;;;;;;;;-144.99;100.00;67352.69;5014442;28;19936;-82
2024/01/21 00:44:31;;;;;;;;;;;;;;;-144.99;100.00;67352.69;5013822;28;19917;-84
2024/01/21 00:46:57;;;;;;;;;;;;;;;-144.99;100.00;67352.69;5014341;28;19919;-83
2024/01/21 00:49:22;;;;;;;;;;;;;;;-144.99;100.00;67352.69;4996668;28;20368;-83
2024/01/21 00:51:47;;;;;;;;;;;;;;;-144.99;100.00;67352.69;5014406;28;20407;-82
2024/01/21 00:54:12;;;;;;;;;;;;;;;-144.99;100.00;67352.69;4996253;28;20356;-83
2024/01/21 00:56:37;;;;;;;;;;;;;;;-144.99;100.00;67352.69;4996070;28;19960;-82
2024/01/21 00:59:03;;;;;;;;;;;;;;;-144.99;100.00;67352.69;4996613;28;19925;-83
2024/01/21 01:01:28;;;;;;;;;;;;;;;-144.99;100.00;67352.69;4996701;28;19949;-83
2024/01/21 01:03:53;;;;;;;;;;;;;;;-144.99;100.00;67352.69;4995417;28;19945;-82
2024/01/21 01:06:18;;;;;;;;;;;;;;;-144.99;100.00;67352.69;5013837;28;19914;-83
2024/01/21 01:08:43;;;;;;;;;;;;;;;-144.99;100.00;67352.69;5014846;28;20380;-84
2024/01/21 01:11:09;;;;;;;;;;;;;;;-144.99;100.00;67352.69;5017526;28;20296;-84
2024/01/21 01:13:34;;;;;;;;;;;;;;;-144.99;100.00;67352.69;4999522;28;19940;-82
2024/01/21 01:15:59;;;;;;;;;;;;;;;-144.99;100.00;67352.69;5016317;28;19913;-82
2024/01/21 01:18:25;;;;;;;;;;;;;;;-144.99;100.00;67352.69;5020741;28;19913;-82
2024/01/21 01:20:51;;;;;;;;;;;;;;;-144.99;100.00;67352.69;5017175;28;19917;-81
2024/01/21 01:23:16;;;;;;;;;;;;;;;-144.99;100.00;67352.69;5016738;28;20000;-82
2024/01/21 01:25:41;;;;;;;;;;;;;;;-144.99;100.00;67352.69;4998701;28;19952;-82
2024/01/21 01:28:06;;;;;;;;;;;;;;;-144.99;100.00;67352.69;4998979;28;20337;-82
2024/01/21 01:30:32;;;;;;;;;;;;;;;-144.99;100.00;67352.69;5016244;28;19920;-81
2024/01/21 01:32:57;;;;;;;;;;;;;;;-144.99;100.00;67352.69;4998797;28;19920;-82
2024/01/21 01:35:25;;;;;;;;;;;;;;;-144.99;100.00;67352.69;4998538;28;19972;-82
2024/01/21 01:37:50;;;;;;;;;;;;;;;-144.99;100.00;67352.69;5008742;28;19949;-80
2024/01/21 01:40:19;;;;;;;;;;;;;;;-144.99;100.00;67352.69;4998501;28;19969;-82
2024/01/21 01:42:45;;;;;;;;;;;;;;;-144.99;100.00;67352.69;4998252;28;19921;-81
2024/01/21 01:45:10;;;;;;;;;;;;;;;-144.99;100.00;67352.69;4997598;28;19913;-82
2024/01/21 01:47:35;;;;;;;;;;;;;;;-144.99;100.00;67352.69;4997985;28;19918;-82
2024/01/21 01:50:00;;;;;;;;;;;;;;;-144.99;100.00;67352.69;4997619;28;19925;-81
2024/01/21 01:52:25;;;;;;;;;;;;;;;-144.99;100.00;67352.69;4997211;28;19913;-83
2024/01/21 01:54:51;;;;;;;;;;;;;;;-144.99;100.00;67352.69;4996462;28;20351;-84
2024/01/21 01:57:18;;;;;;;;;;;;;;;-144.99;100.00;67352.69;4998739;28;19917;-83
2024/01/21 01:59:43;;;;;;;;;;;;;;;-144.99;100.00;67352.69;4999186;28;19924;-82
2024/01/21 02:02:09;;;;;;;;;;;;;;;-144.99;100.00;67352.69;4998933;28;20012;-83
2024/01/21 02:04:34;;;;;;;;;;;;;;;-144.99;100.00;67352.69;5022543;28;19936;-84
2024/01/21 02:07:00;;;;;;;;;;;;;;;-144.99;100.00;67352.69;5029359;28;20362;-83
2024/01/21 02:09:25;;;;;;;;;;;;;;;-144.99;100.00;67352.69;4999165;28;19914;-83
2024/01/21 02:11:50;;;;;;;;;;;;;;;-144.99;100.00;67352.69;5015248;28;19918;-82
2024/01/21 02:14:16;;;;;;;;;;;;;;;-144.99;100.00;67352.69;5016207;28;19917;-82
2024/01/21 02:16:41;;;;;;;;;;;;;;;-144.99;100.00;67352.69;5016834;28;19924;-83
2024/01/21 02:19:10;;;;;;;;;;;;;;;-144.99;100.00;67352.69;4998154;28;19925;-83
2024/01/21 02:21:35;;;;;;;;;;;;;;;-144.99;100.00;67352.69;4999243;28;20300;-83
2024/01/21 02:24:00;;;;;;;;;;;;;;;-144.99;100.00;67352.69;5015937;28;19917;-83
2024/01/21 02:26:26;;;;;;;;;;;;;;;-144.99;100.00;67352.69;5016339;28;20376;-85
2024/01/21 02:28:51;;;;;;;;;;;;;;;-144.99;100.00;67352.69;5016246;28;19917;-82
2024/01/21 02:31:16;;;;;;;;;;;;;;;-144.99;100.00;67352.69;5016081;28;20016;-82
2024/01/21 02:33:41;;;;;;;;;;;;;;;-144.99;100.00;67352.69;4998412;28;19928;-82
2024/01/21 02:36:07;;;;;;;;;;;;;;;-144.99;100.00;67352.69;5015937;28;20419;-82
2024/01/21 02:38:32;;;;;;;;;;;;;;;-144.99;100.00;67352.69;5015847;28;19913;-84
2024/01/21 02:40:58;;;;;;;;;;;;;;;-144.99;100.00;67352.69;4997874;28;20403;-84
2024/01/21 02:43:23;;;;;;;;;;;;;;;-144.99;100.00;67352.69;4997448;28;20015;-83
2024/01/21 02:45:48;;;;;;;;;;;;;;;-144.99;100.00;67352.69;5015220;28;20011;-83
2024/01/21 02:48:13;;;;;;;;;;;;;;;-144.99;100.00;67352.69;4998208;28;19914;-84
2024/01/21 02:50:39;;;;;;;;;;;;;;;-144.99;100.00;67352.69;4998107;28;19913;-82
2024/01/21 02:53:04;;;;;;;;;;;;;;;-144.99;100.00;67352.69;5015666;28;19913;-81
2024/01/21 02:55:29;;;;;;;;;;;;;;;-144.99;100.00;67352.69;5016025;28;19928;-83
2024/01/21 02:57:54;;;;;;;;;;;;;;;-144.99;100.00;67352.69;4997871;28;19913;-83
2024/01/21 03:00:19;;;;;;;;;;;;;;;-144.99;100.00;67352.69;4997568;28;19925;-81
2024/01/21 03:02:45;;;;;;;;;;;;;;;-144.99;100.00;67352.69;5014951;28;19960;-81
2024/01/21 03:05:10;;;;;;;;;;;;;;;-144.99;100.00;67352.69;5014711;28;19913;-84
2024/01/21 03:07:35;;;;;;;;;;;;;;;-144.99;100.00;67352.69;5016058;28;19920;-83
2024/01/21 03:10:00;;;;;;;;;;;;;;;-144.99;100.00;67352.69;4997794;28;19924;-82
2024/01/21 03:12:25;;;;;;;;;;;;;;;-144.99;100.00;67352.69;5015366;28;19917;-84
2024/01/21 03:14:51;;;;;;;;;;;;;;;-144.99;100.00;67352.69;4997217;28;19918;-82
2024/01/21 03:17:16;;;;;;;;;;;;;;;-144.99;100.00;67352.69;5015296;28;19921;-83
2024/01/21 03:19:41;;;;;;;;;;;;;;;-144.99;100.00;67352.69;4997018;28;19929;-83
2024/01/21 03:22:06;;;;;;;;;;;;;;;-144.99;100.00;67352.69;5015135;28;19921;-83
2024/01/21 03:24:31;;;;;;;;;;;;;;;-144.99;100.00;67352.69;4997248;28;19953;-84
2024/01/21 03:26:57;;;;;;;;;;;;;;;-144.99;100.00;67352.69;5014467;28;19996;-83
2024/01/21 03:29:23;;;;;;;;;;;;;;;-144.99;100.00;67352.69;4997549;28;19914;-83
2024/01/21 03:31:48;;;;;;;;;;;;;;;-144.99;100.00;67352.69;5014309;28;19919;-83
2024/01/21 03:34:13;;;;;;;;;;;;;;;-144.99;100.00;67352.69;4996792;28;20012;-84
2024/01/21 03:36:39;;;;;;;;;;;;;;;-144.99;100.00;67352.69;5015205;28;19914;-83
2024/01/21 03:39:04;;;;;;;;;;;;;;;-144.99;100.00;67352.69;4997191;28;19924;-84
2024/01/21 03:41:30;;;;;;;;;;;;;;;-144.99;100.00;67352.69;5014661;28;19996;-84
2024/01/21 03:43:56;;;;;;;;;;;;;;;-144.99;100.00;67352.69;4996653;28;20113;-83
2024/01/21 03:46:21;;;;;;;;;;;;;;;-144.99;100.00;67352.69;4997007;28;20299;-83
2024/01/21 03:48:47;;;;;;;;;;;;;;;-144.99;100.00;67352.69;5013219;28;19913;-84
2024/01/21 03:51:12;;;;;;;;;;;;;;;-144.99;100.00;67352.69;5014390;28;20322;-83
2024/01/21 03:53:41;;;;;;;;;;;;;;;-144.99;100.00;67352.69;5014445;28;20365;-83
2024/01/21 03:56:07;;;;;;;;;;;;;;;-144.99;100.00;67352.69;4995440;28;19913;-83
2024/01/21 03:58:32;;;;;;;;;;;;;;;-144.99;100.00;67352.69;5011078;28;19914;-83
2024/01/21 04:00:57;;;;;;;;;;;;;;;-144.99;100.00;67352.69;5012269;28;20424;-83
2024/01/21 04:03:22;;;;;;;;;;;;;;;-144.99;100.00;67352.69;4994089;28;20446;-83
2024/01/21 04:05:47;;;;;;;;;;;;;;;-144.99;100.00;67352.69;5012118;28;20369;-83
2024/01/21 04:08:13;;;;;;;;;;;;;;;-144.99;100.00;67352.69;4994430;28;19956;-85
2024/01/21 04:10:39;;;;;;;;;;;;;;;-144.99;100.00;67352.69;5012144;28;19961;-83
2024/01/21 04:13:04;;;;;;;;;;;;;;;-144.99;100.00;67352.69;4994475;28;19917;-83
2024/01/21 04:15:29;;;;;;;;;;;;;;;-144.99;100.00;67352.69;5012321;28;19938;-83
2024/01/21 04:17:55;;;;;;;;;;;;;;;-144.99;100.00;67352.69;5012315;28;19921;-82
2024/01/21 04:20:20;;;;;;;;;;;;;;;-144.99;100.00;67352.69;5012016;28;19965;-83
2024/01/21 04:22:45;;;;;;;;;;;;;;;-144.99;100.00;67352.69;5012009;28;19921;-83
2024/01/21 04:25:10;;;;;;;;;;;;;;;-144.99;100.00;67352.69;5011830;28;19979;-82
2024/01/21 04:27:35;;;;;;;;;;;;;;;-144.99;100.00;67352.69;4994700;28;20377;-84
2024/01/21 04:30:01;;;;;;;;;;;;;;;-144.99;100.00;67352.69;5012117;28;19918;-83
2024/01/21 04:32:26;;;;;;;;;;;;;;;-144.99;100.00;67352.69;5012051;28;19914;-84
2024/01/21 04:34:51;;;;;;;;;;;;;;;-144.99;100.00;67352.69;4994063;28;20000;-82
2024/01/21 04:37:17;;;;;;;;;;;;;;;-144.99;100.00;67352.69;4994432;28;19913;-83
2024/01/21 04:39:42;;;;;;;;;;;;;;;-144.99;100.00;67352.69;5011856;28;20380;-83
2024/01/21 04:42:07;;;;;;;;;;;;;;;-144.99;100.00;67352.69;4994427;28;20332;-82
2024/01/21 04:44:32;;;;;;;;;;;;;;;-144.99;100.00;67352.69;5012637;28;19924;-84
2024/01/21 04:46:57;;;;;;;;;;;;;;;-144.99;100.00;67352.69;4998571;28;19956;-83
2024/01/21 04:49:22;;;;;;;;;;;;;;;-144.99;100.00;67352.69;4998558;28;19917;-83
2024/01/21 04:51:48;;;;;;;;;;;;;;;-144.99;100.00;67352.69;5015685;28;19920;-83
2024/01/21 04:54:13;;;;;;;;;;;;;;;-144.99;100.00;67352.69;5015562;28;19936;-83
2024/01/21 04:56:38;;;;;;;;;;;;;;;-144.99;100.00;67352.69;4998327;28;19922;-83
2024/01/21 04:59:04;;;;;;;;;;;;;;;-144.99;100.00;67352.69;5015530;28;19918;-83
2024/01/21 05:01:29;;;;;;;;;;;;;;;-144.99;100.00;67352.69;5015576;28;20008;-83
2024/01/21 05:03:54;;;;;;;;;;;;;;;-144.99;100.00;67352.69;4997827;28;20359;-83
2024/01/21 05:06:20;;;;;;;;;;;;;;;-144.99;100.00;67352.69;5014506;28;19914;-82
2024/01/21 05:08:45;;;;;;;;;;;;;;;-144.99;100.00;67352.69;4998220;28;19935;-84
2024/01/21 05:11:12;;;;;;;;;;;;;;;-144.99;100.00;67352.69;5015268;28;19968;-83
2024/01/21 05:13:37;;;;;;;;;;;;;;;-144.99;100.00;67352.69;5015119;28;19924;-83
2024/01/21 05:16:03;;;;;;;;;;;;;;;-144.99;100.00;67352.69;4997731;28;20416;-83
2024/01/21 05:18:29;;;;;;;;;;;;;;;-144.99;100.00;67352.69;4997769;28;20000;-83
2024/01/21 05:20:54;;;;;;;;;;;;;;;-144.99;100.00;67352.69;5014955;28;20397;-83
2024/01/21 05:23:19;;;;;;;;;;;;;;;-144.99;100.00;67352.69;5014812;28;19920;-83
2024/01/21 05:25:49;;;;;;;;;;;;;;;-144.99;100.00;67352.69;5015033;28;20436;-83
2024/01/21 05:28:15;;;;;;;;;;;;;;;-144.99;100.00;67352.69;5015178;28;19914;-83
2024/01/21 05:30:40;;;;;;;;;;;;;;;-144.99;100.00;67352.69;5014826;28;19914;-84
2024/01/21 05:33:05;;;;;;;;;;;;;;;-144.99;100.00;67352.69;5014718;28;19937;-83
2024/01/21 05:35:30;;;;;;;;;;;;;;;-144.99;100.00;67352.69;5014934;28;19924;-84
2024/01/21 05:37:55;;;;;;;;;;;;;;;-144.99;100.00;67352.69;4997580;28;19913;-82
2024/01/21 05:40:20;;;;;;;;;;;;;;;-144.99;100.00;67352.69;5014899;28;19957;-83
2024/01/21 05:42:46;;;;;;;;;;;;;;;-144.99;100.00;67352.69;4997246;28;20295;-83
2024/01/21 05:45:11;;;;;;;;;;;;;;;-144.99;100.00;67352.69;5014489;28;19925;-83
2024/01/21 05:47:36;;;;;;;;;;;;;;;-144.99;100.00;67352.69;4997250;28;19976;-83
2024/01/21 05:50:01;;;;;;;;;;;;;;;-144.99;100.00;67352.69;5014764;28;19940;-83
2024/01/21 05:52:26;;;;;;;;;;;;;;;-144.99;100.00;67352.69;5014342;28;19913;-83
2024/01/21 05:54:51;;;;;;;;;;;;;;;-144.99;100.00;67352.69;4996100;28;19960;-83
2024/01/21 05:57:17;;;;;;;;;;;;;;;-144.99;100.00;67352.69;5014823;28;19917;-84
2024/01/21 05:59:42;;;;;;;;;;;;;;;-144.99;100.00;67352.69;4996688;28;19925;-83
2024/01/21 06:02:10;;;;;;;;;;;;;;;-144.99;100.00;67352.69;5014124;28;19914;-84
2024/01/21 06:04:35;;;;;;;;;;;;;;;-144.99;100.00;67352.69;4996207;28;19913;-83
2024/01/21 06:07:00;;;;;;;;;;;;;;;-144.99;100.00;67352.69;4996863;28;20419;-83
2024/01/21 06:09:26;;;;;;;;;;;;;;;-144.99;100.00;67352.69;5014145;28;19917;-83
2024/01/21 06:11:51;;;;;;;;;;;;;;;-144.99;100.00;67352.69;5014336;28;20004;-83
2024/01/21 06:14:16;;;;;;;;;;;;;;;-144.99;100.00;67352.69;5013969;28;19913;-83
2024/01/21 06:16:42;;;;;;;;;;;;;;;-144.99;100.00;67352.69;5014153;28;19921;-83
2024/01/21 06:19:07;;;;;;;;;;;;;;;-144.99;100.00;67352.69;5013638;28;19918;-83
2024/01/21 06:21:33;;;;;;;;;;;;;;;-144.99;100.00;67352.69;5013955;28;20008;-83
2024/01/21 06:23:58;;;;;;;;;;;;;;;-144.99;100.00;67352.69;4996126;28;19921;-84
2024/01/21 06:26:23;;;;;;;;;;;;;;;-144.99;100.00;67352.69;5014162;28;19941;-83
2024/01/21 06:28:49;;;;;;;;;;;;;;;-144.99;100.00;67352.69;5013758;28;19920;-83
2024/01/21 06:31:14;;;;;;;;;;;;;;;-144.99;100.00;67352.69;4996422;28;19913;-82
2024/01/21 06:33:40;;;;;;;;;;;;;;;-144.99;100.00;67352.69;4995944;28;19952;-83
2024/01/21 06:36:05;;;;;;;;;;;;;;;-144.99;100.00;67352.69;4996309;28;19921;-84
2024/01/21 06:38:31;;;;;;;;;;;;;;;-144.99;100.00;67352.69;4996348;28;19914;-84
2024/01/21 06:40:56;;;;;;;;;;;;;;;-144.99;100.00;67352.69;4995667;28;19948;-83
2024/01/21 06:43:21;;;;;;;;;;;;;;;-144.99;100.00;67352.69;4995699;28;19960;-83
2024/01/21 06:45:46;;;;;;;;;;;;;;;-144.99;100.00;67352.69;4996056;28;19920;-84
2024/01/21 06:48:11;;;;;;;;;;;;;;;-144.99;100.00;67352.69;4996078;28;20032;-83
2024/01/21 06:50:37;;;;;;;;;;;;;;;-144.99;100.00;67352.69;4995917;28;19913;-84
2024/01/21 06:53:02;;;;;;;;;;;;;;;-144.99;100.00;67352.69;5013107;28;19924;-83
2024/01/21 06:55:27;;;;;;;;;;;;;;;-144.99;100.00;67352.69;5013342;28;19913;-84
2024/01/21 06:57:52;;;;;;;;;;;;;;;-144.99;100.00;67352.69;4995910;28;19914;-83
2024/01/21 07:00:18;;;;;;;;;;;;;;;-144.99;100.00;67352.69;5014013;28;20395;-83
2024/01/21 07:02:59;;;;;;;;;;;;;;;3.43;42.41;100747.75;5090737;28;19916;-77
2024/01/21 07:05:24;;;;;;;;;;;;;;;3.71;42.26;100810.66;5090747;28;19943;-77
2024/01/21 07:07:49;;;;;;;;;;;;;;;3.78;42.96;100797.78;5082542;28;20362;-77
2024/01/21 07:10:15;;;;;;;;;;;;;;;3.79;42.86;100810.22;5084247;28;20388;-77
2024/01/21 07:12:40;;;;;;;;;;;;;;;3.63;43.06;100774.13;5080636;28;20011;-77
2024/01/21 07:15:05;;;;;;;;;;;;;;;3.50;42.80;100752.94;5080730;28;20293;-77
2024/01/21 07:17:31;;;;;;;;;;;;;;;3.72;42.84;100802.31;5072205;28;19963;-77
2024/01/21 07:19:56;;;;;;;;;;;;;;;3.52;42.91;100775.13;5082849;28;19912;-77
2024/01/21 07:22:21;;;;;;;;;;;;;;;3.66;43.27;100775.50;5090183;28;19924;-77
2024/01/21 07:24:46;;;;;;;;;;;;;;;3.41;43.14;100755.28;5090326;28;19912;-77
2024/01/21 07:27:12;;;;;;;;;;;;;;;3.58;43.27;100783.00;5084592;28;20296;-78
2024/01/21 07:29:38;;;;;;;;;;;;;;;3.58;43.12;100765.97;5087562;28;20362;-77
2024/01/21 07:32:03;;;;;;;;;;;;;;;3.40;43.25;100723.16;5082367;28;19995;-77
2024/01/21 07:34:29;;;;;;;;;;;;;;;3.29;43.02;100700.63;5073112;28;19913;-77
2024/01/21 07:36:54;;;;;;;;;;;;;;;3.41;42.78;100717.47;5084702;28;19963;-77
2024/01/21 07:39:19;;;;;;;;;;;;;;;3.50;43.03;100736.75;5078175;28;19995;-77
2024/01/21 07:41:44;;;;;;;;;;;;;;;3.46;43.03;100731.03;5087218;28;19963;-76
2024/01/21 07:44:09;;;;;;;;;;;;;;;3.45;43.01;100734.78;5080116;28;19913;-77
2024/01/21 07:46:35;;;;;;;;;;;;;;;3.38;42.90;100680.19;5079749;28;19946;-77
2024/01/21 07:49:00;;;;;;;;;;;;;;;3.79;42.71;100740.75;5067666;28;19970;-77
2024/01/21 07:51:25;;;;;;;;;;;;;;;3.50;42.55;100678.13;5073653;28;19912;-77
2024/01/21 07:53:51;;;;;;;;;;;;;;;3.63;42.41;100706.59;5068824;28;19932;-77
2024/01/21 07:56:16;;;;;;;;;;;;;;;3.56;42.26;100681.69;5084232;28;20281;-78
2024/01/21 07:58:41;;;;;;;;;;;;;;;3.74;42.08;100710.97;5078595;28;19912;-78
2024/01/21 08:01:12;;;;;;;;;;;;;;;3.78;42.04;100709.41;5082006;28;19951;-78
2024/01/21 08:03:38;;;;;;;;;;;;;;;3.76;42.10;100705.31;5099093;28;19999;-77
2024/01/21 08:06:04;;;;;;;;;;;;;;;3.91;41.74;100735.19;5100904;28;20458;-78
2024/01/21 08:08:30;;;;;;;;;;;;;;;3.96;41.82;100718.16;5092181;28;20385;-78
2024/01/21 08:10:55;;;;;;;;;;;;;;;3.92;41.92;100712.47;5101231;28;19912;-78
2024/01/21 08:13:20;;;;;;;;;;;;;;;3.84;41.43;100718.34;5093808;28;20003;-77
2024/01/21 08:15:45;;;;;;;;;;;;;;;3.97;42.06;100727.91;5083731;28;19927;-77
2024/01/21 08:18:12;;;;;;;;;;;;;;;3.96;42.31;100747.91;5081388;28;19916;-77
2024/01/21 08:20:38;;;;;;;;;;;;;;;3.95;42.29;100738.97;5085217;28;20418;-77
2024/01/21 08:23:03;;;;;;;;;;;;;;;4.06;42.11;100742.56;5080201;28;19912;-77
2024/01/21 08:25:28;;;;;;;;;;;;;;;3.95;41.87;100740.88;5094065;28;19969;-77
2024/01/21 08:27:53;;;;;;;;;;;;;;;4.05;41.70;100749.88;5083506;28;19920;-78
2024/01/21 08:30:19;;;;;;;;;;;;;;;3.92;41.83;100712.47;5084912;28;20355;-81
2024/01/21 08:32:44;;;;;;;;;;;;;;;4.22;42.00;100774.03;5095149;28;19912;-80
2024/01/21 08:35:10;;;;;;;;;;;;;;;4.29;41.69;100761.09;5095187;28;19916;-80
2024/01/21 08:37:35;;;;;;;;;;;;;;;4.18;41.25;100741.28;5092627;28;20283;-80
2024/01/21 08:40:00;;;;;;;;;;;;;;;4.38;41.27;100734.38;5088009;28;19916;-80
2024/01/21 08:42:26;;;;;;;;;;;;;;;4.16;41.47;100708.28;5078141;28;19916;-80
2024/01/21 08:44:51;;;;;;;;;;;;;;;4.38;41.49;100723.53;5069807;28;20008;-80
2024/01/21 08:47:16;;;;;;;;;;;;;;;4.27;41.40;100716.44;5088742;28;20264;-80
2024/01/21 08:49:42;;;;;;;;;;;;;;;4.14;41.61;100694.22;5079988;28;19916;-80
2024/01/21 08:52:07;;;;;;;;;;;;;;;3.98;41.31;100676.28;5084617;28;19912;-80
2024/01/21 08:54:32;;;;;;;;;;;;;;;4.29;41.38;100741.34;5077706;28;19917;-81
2024/01/21 08:56:57;;;;;;;;;;;;;;;4.32;41.76;100748.91;5090584;28;20373;-81
2024/01/21 08:59:23;;;;;;;;;;;;;;;4.17;41.61;100712.59;5084069;28;19938;-80
2024/01/21 09:01:49;;;;;;;;;;;;;;;4.46;41.44;100731.94;5072653;28;19921;-81
2024/01/21 09:04:15;;;;;;;;;;;;;;;4.35;41.90;100718.66;5078756;28;19924;-82
2024/01/21 09:06:41;;;;;;;;;;;;;;;4.65;41.33;100753.16;5077831;28;19913;-82
2024/01/21 09:09:13;;;;;;;;;;;;;;;4.56;41.94;100739.31;5076741;28;19950;-81
2024/01/21 09:11:39;;;;;;;;;;;;;;;4.66;41.78;100747.47;5079386;28;20392;-81
2024/01/21 09:14:04;;;;;;;;;;;;;;;4.90;41.53;100779.50;5076535;28;19912;-82
2024/01/21 09:16:29;;;;;;;;;;;;;;;4.97;41.83;100793.63;5076812;28;20388;-82
2024/01/21 09:18:55;;;;;;;;;;;;;;;4.74;41.72;100776.72;5075849;28;19912;-81
2024/01/21 09:21:20;;;;;;;;;;;;;;;4.78;41.62;100787.88;5075256;28;19985;-81
2024/01/21 09:23:45;;;;;;;;;;;;;;;4.61;42.00;100803.44;5075812;28;20498;-81
2024/01/21 09:26:10;;;;;;;;;;;;;;;4.60;41.96;100802.63;5073157;28;20025;-81
2024/01/21 09:28:36;;;;;;;;;;;;;;;4.26;41.89;100783.25;5073398;28;19913;-82
2024/01/21 09:31:02;;;;;;;;;;;;;;;4.59;42.35;100835.38;5081758;28;19921;-81
2024/01/21 09:33:27;;;;;;;;;;;;;;;4.56;42.35;100806.97;5073375;28;20011;-81
2024/01/21 09:35:52;;;;;;;;;;;;;;;4.57;42.76;100830.22;5078068;28;19958;-81
2024/01/21 09:38:18;;;;;;;;;;;;;;;4.60;42.81;100851.34;5084880;28;19912;-80
2024/01/21 09:40:47;;;;;;;;;;;;;;;4.73;43.45;100850.88;5083492;28;19916;-82
2024/01/21 09:43:13;;;;;;;;;;;;;;;4.56;43.13;100838.59;5080998;28;19919;-82
2024/01/21 09:45:40;;;;;;;;;;;;;;;4.48;43.23;100802.03;5082754;28;20396;-82
2024/01/21 09:48:06;;;;;;;;;;;;;;;4.39;43.67;100795.50;5087289;28;19913;-81
2024/01/21 09:50:32;;;;;;;;;;;;;;;4.63;43.63;100809.41;5082835;28;20003;-81
2024/01/21 09:52:58;;;;;;;;;;;;;;;4.63;43.55;100801.28;5073446;28;19961;-81
2024/01/21 09:55:23;;;;;;;;;;;;;;;4.59;43.78;100765.03;5088773;28;20003;-81
2024/01/21 09:57:49;;;;;;;;;;;;;;;4.74;43.42;100795.66;5085906;28;19965;-82
2024/01/21 10:00:16;;;;;;;;;;;;;;;4.74;43.53;100757.78;5081894;28;19924;-82
2024/01/21 10:02:42;;;;;;;;;;;;;;;4.99;43.48;100803.09;5082647;28;19927;-82
2024/01/21 10:05:07;;;;;;;;;;;;;;;4.99;43.73;100804.97;5095482;28;20250;-82
2024/01/21 10:07:33;;;;;;;;;;;;;;;5.04;43.37;100799.56;5089767;28;19916;-81
2024/01/21 10:09:58;;;;;;;;;;;;;;;4.92;43.70;100794.41;5083236;28;19999;-82
2024/01/21 10:12:26;;;;;;;;;;;;;;;4.74;43.47;100763.19;5089669;28;19916;-81
2024/01/21 10:14:51;;;;;;;;;;;;;;;5.02;43.58;100794.44;5085447;28;19916;-82
2024/01/21 10:17:22;;;;;;;;;;;;;;;4.90;43.59;100769.47;5090308;28;20449;-81
2024/01/21 10:19:49;;;;;;;;;;;;;;;5.32;43.41;100811.84;5085795;28;19965;-81
2024/01/21 10:22:15;;;;;;;;;;;;;;;5.12;43.61;100784.72;5090388;28;19963;-81
2024/01/21 10:24:41;;;;;;;;;;;;;;;5.06;43.54;100798.25;5085226;28;19920;-81
2024/01/21 10:27:07;;;;;;;;;;;;;;;5.01;43.86;100787.38;5085029;28;20400;-81
2024/01/21 10:29:32;;;;;;;;;;;;;;;4.82;43.52;100766.47;5074379;28;19912;-81
2024/01/21 10:31:57;;;;;;;;;;;;;;;4.99;43.79;100800.38;5084912;28;20043;-81
2024/01/21 10:34:23;;;;;;;;;;;;;;;5.08;44.01;100809.63;5089751;28;19916;-82
2024/01/21 10:36:51;;;;;;;;;;;;;;;5.01;44.25;100786.56;5090204;28;20331;-81
2024/01/21 10:39:18;;;;;;;;;;;;;;;4.88;44.36;100774.34;5086143;28;19912;-81
2024/01/21 10:41:43;;;;;;;;;;;;;;;4.90;44.63;100734.28;5083521;28;19920;-81
2024/01/21 10:44:08;;;;;;;;;;;;;;;4.95;44.23;100772.22;5094874;28;19999;-81
2024/01/21 10:46:35;;;;;;;;;;;;;;;4.88;44.41;100765.41;5087251;28;20490;-81
2024/01/21 10:49:00;;;;;;;;;;;;;;;4.93;44.54;100762.75;5088788;28;19913;-81
2024/01/21 10:51:26;;;;;;;;;;;;;;;5.16;44.33;100775.78;5073063;28;19961;-80
2024/01/21 10:53:52;;;;;;;;;;;;;;;5.33;44.23;100781.78;5066937;28;19928;-80
2024/01/21 10:56:18;;;;;;;;;;;;;;;5.45;44.15;100778.00;5072340;28;19924;-81
2024/01/21 10:58:43;;;;;;;;;;;;;;;5.83;43.92;100801.09;5074936;28;20330;-81
2024/01/21 11:01:10;;;;;;;;;;;;;;;5.58;44.32;100772.06;5078371;28;19966;-81
2024/01/21 11:03:36;;;;;;;;;;;;;;;5.51;44.25;100760.69;5084284;28;19965;-81
2024/01/21 11:06:03;;;;;;;;;;;;;;;5.36;44.06;100710.00;5092078;28;19922;-81
2024/01/21 11:08:29;;;;;;;;;;;;;;;5.73;44.55;100752.28;5085105;28;20442;-81
2024/01/21 11:11:02;;;;;;;;;;;;;;;5.84;44.19;100741.16;5079565;28;19920;-81
2024/01/21 11:13:42;;;;;;;;;;;;;;;5.80;44.20;100704.84;5072285;28;19913;-79
2024/01/21 11:16:31;;;;;;;;;;;;;;;5.74;44.18;100716.75;5080317;28;19978;-81
2024/01/21 11:18:57;;;;;;;;;;;;;;;5.89;44.19;100735.72;5049612;28;19962;-82
2024/01/21 11:21:27;;;;;;;;;;;;;;;5.85;44.20;100750.94;5071870;28;19917;-81
2024/01/21 11:23:58;;;;;;;;;;;;;;;5.76;44.20;100730.84;5063693;28;20365;-82
2024/01/21 11:26:23;;;;;;;;;;;;;;;5.89;44.54;100770.16;5071816;28;19999;-81
2024/01/21 11:28:49;;;;;;;;;;;;;;;5.77;44.38;100727.06;5082238;28;19963;-82
2024/01/21 11:31:14;;;;;;;;;;;;;;;5.51;44.63;100711.91;5080065;28;19919;-81
2024/01/21 11:33:41;;;;;;;;;;;;;;;5.78;44.82;100744.94;5072595;28;19961;-80
2024/01/21 11:36:07;;;;;;;;;;;;;;;5.37;44.99;100684.53;5072440;28;19946;-81
2024/01/21 11:38:33;;;;;;;;;;;;;;;5.27;45.14;100703.50;5077688;28;19920;-81
2024/01/21 11:41:02;;;;;;;;;;;;;;;5.58;45.40;100763.94;5076435;28;19916;-81
2024/01/21 11:43:28;;;;;;;;;;;;;;;5.38;45.38;100703.25;5076796;28;19913;-82
2024/01/21 11:45:54;;;;;;;;;;;;;;;5.46;45.50;100720.84;5073067;28;19955;-81
2024/01/21 11:48:25;;;;;;;;;;;;;;;5.53;45.86;100709.75;5088740;28;19912;-82
2024/01/21 11:50:51;;;;;;;;;;;;;;;5.59;45.75;100725.72;5076705;28;19919;-81
2024/01/21 11:53:16;;;;;;;;;;;;;;;5.47;45.68;100694.56;5084468;28;20010;-82
2024/01/21 11:55:41;;;;;;;;;;;;;;;5.62;45.71;100729.78;5075397;28;19920;-81
2024/01/21 11:58:07;;;;;;;;;;;;;;;5.37;45.76;100701.63;5076622;28;19912;-83
2024/01/21 12:00:32;;;;;;;;;;;;;;;5.60;45.90;100727.34;5076754;28;19912;-81
2024/01/21 12:02:58;;;;;;;;;;;;;;;5.62;45.62;100703.50;5078825;28;20413;-80
2024/01/21 12:05:23;;;;;;;;;;;;;;;6.11;45.70;100769.91;5075161;28;20304;-81
2024/01/21 12:07:48;;;;;;;;;;;;;;;6.51;45.40;100777.97;5076280;28;20289;-81
2024/01/21 12:10:14;;;;;;;;;;;;;;;6.64;45.11;100775.75;5082071;28;20003;-81
2024/01/21 12:12:40;;;;;;;;;;;;;;;6.37;45.31;100730.00;5084984;28;19912;-81
2024/01/21 12:15:05;;;;;;;;;;;;;;;6.41;45.69;100747.34;5077689;28;20293;-82
2024/01/21 12:17:31;;;;;;;;;;;;;;;6.43;45.51;100737.00;5083164;28;19923;-82
2024/01/21 12:19:57;;;;;;;;;;;;;;;6.40;46.15;100740.28;5074539;28;19912;-81
2024/01/21 12:22:35;;;;;;;;;;;;;;;6.40;46.24;100745.72;5083009;28;20009;-81